createdAt,value
2023-03-20T00:02:04.157Z,52.60
2023-03-20T00:04:31.061Z,53.77
2023-03-20T00:06:57.977Z,56.50
2023-03-20T00:09:26.763Z,49.37
2023-03-20T00:11:54.325Z,48.33
2023-03-20T00:14:22.622Z,33.93
2023-03-20T00:16:49.780Z,35.73
2023-03-20T00:19:18.584Z,35.33
2023-03-20T00:21:46.806Z,38.60
2023-03-20T00:24:14.464Z,36.17
2023-03-20T00:26:41.342Z,34.27
2023-03-20T00:29:12.093Z,37.40
2023-03-20T00:31:39.781Z,37.27
2023-03-20T00:34:12.047Z,37.47
2023-03-20T00:36:38.942Z,42.00
2023-03-20T00:39:06.129Z,38.10
2023-03-20T00:41:46.733Z,31.13
2023-03-20T00:44:38.073Z,34.83
2023-03-20T00:47:16.957Z,35.20
2023-03-20T00:49:45.945Z,32.10
2023-03-20T00:52:12.885Z,36.43
2023-03-20T00:54:39.681Z,37.30
2023-03-20T00:57:12.696Z,42.73
2023-03-20T00:59:42.176Z,44.33
2023-03-20T01:02:10.190Z,42.10
2023-03-20T01:04:39.314Z,41.00
2023-03-20T01:07:07.045Z,37.77
2023-03-20T01:09:33.845Z,39.63
2023-03-20T01:12:01.020Z,38.93
2023-03-20T01:14:27.803Z,34.93
2023-03-20T01:16:54.791Z,45.90
2023-03-20T01:19:21.669Z,43.97
2023-03-20T01:21:48.603Z,39.73
2023-03-20T01:24:15.641Z,41.93
2023-03-20T01:26:44.041Z,39.17
2023-03-20T01:29:24.741Z,40.63
2023-03-20T01:31:53.098Z,39.40
2023-03-20T01:34:21.596Z,37.03
2023-03-20T01:36:56.348Z,38.53
2023-03-20T01:39:28.319Z,42.43
2023-03-20T01:41:55.116Z,45.43
2023-03-20T01:44:30.557Z,40.87
2023-03-20T01:47:00.227Z,43.63
2023-03-20T01:49:28.458Z,39.83
2023-03-20T01:51:59.040Z,41.63
2023-03-20T01:54:31.222Z,44.63
2023-03-20T01:57:05.648Z,42.60
2023-03-20T01:59:36.278Z,41.27
2023-03-20T02:02:05.182Z,45.90
2023-03-20T02:04:35.878Z,50.07
2023-03-20T02:07:16.538Z,43.67
2023-03-20T02:09:56.165Z,43.67
2023-03-20T02:12:35.564Z,42.43
2023-03-20T02:15:05.612Z,41.17
2023-03-20T02:18:01.970Z,44.10
2023-03-20T02:20:58.229Z,46.40
2023-03-20T02:23:41.551Z,44.03
2023-03-20T02:26:19.716Z,40.07
2023-03-20T02:28:54.124Z,43.63
2023-03-20T02:31:33.750Z,45.07
2023-03-20T02:34:00.802Z,39.57
2023-03-20T02:36:30.454Z,43.17
2023-03-20T02:39:13.519Z,49.70
2023-03-20T02:41:46.768Z,46.67
2023-03-20T02:44:23.811Z,44.87
2023-03-20T02:46:58.228Z,42.07
2023-03-20T02:49:45.955Z,43.57
2023-03-20T02:52:31.289Z,49.80
2023-03-20T02:55:07.441Z,40.43
2023-03-20T02:57:34.540Z,41.80
2023-03-20T03:00:09.983Z,40.17
2023-03-20T03:02:41.982Z,42.70
2023-03-20T03:05:13.742Z,42.47
2023-03-20T03:07:42.344Z,45.00
2023-03-20T03:10:15.665Z,41.53
2023-03-20T03:12:48.011Z,46.00
2023-03-20T03:15:21.427Z,45.57
2023-03-20T03:17:49.661Z,41.07
2023-03-20T03:20:22.347Z,45.83
2023-03-20T03:22:49.696Z,41.40
2023-03-20T03:25:16.636Z,43.63
2023-03-20T03:27:45.838Z,39.40
2023-03-20T03:30:12.769Z,41.57
2023-03-20T03:32:50.627Z,40.70
2023-03-20T03:35:19.018Z,37.37
2023-03-20T03:37:49.805Z,49.40
2023-03-20T03:40:19.853Z,46.37
2023-03-20T03:42:55.719Z,42.77
2023-03-20T03:45:27.438Z,45.13
2023-03-20T03:48:01.520Z,41.63
2023-03-20T03:50:31.718Z,40.13
2023-03-20T03:53:02.930Z,47.60
2023-03-20T03:55:35.813Z,39.73
2023-03-20T03:58:11.969Z,53.57
2023-03-20T04:00:41.121Z,45.97
2023-03-20T04:03:09.073Z,45.73
2023-03-20T04:05:37.836Z,44.47
2023-03-20T04:08:05.975Z,43.87
2023-03-20T04:10:33.476Z,43.43
2023-03-20T04:13:00.553Z,41.43
2023-03-20T04:15:28.082Z,45.00
2023-03-20T04:17:55.822Z,44.97
2023-03-20T04:20:23.134Z,49.00
2023-03-20T04:22:50.127Z,55.83
2023-03-20T04:25:19.221Z,41.73
2023-03-20T04:27:46.950Z,51.13
2023-03-20T04:30:44.495Z,49.03
2023-03-20T04:33:25.252Z,63.73
2023-03-20T04:36:00.755Z,73.53
2023-03-20T04:38:27.654Z,66.30
2023-03-20T04:40:55.334Z,55.53
2023-03-20T04:43:22.358Z,51.17
2023-03-20T04:45:49.213Z,49.53
2023-03-20T04:48:16.239Z,52.33
2023-03-20T04:50:43.315Z,55.47
2023-03-20T04:53:10.211Z,54.23
2023-03-20T04:55:37.618Z,50.47
2023-03-20T04:58:04.673Z,56.63
2023-03-20T05:00:32.970Z,53.80
2023-03-20T05:03:00.400Z,50.23
2023-03-20T05:05:27.582Z,52.57
2023-03-20T05:07:54.915Z,51.07
2023-03-20T05:10:32.138Z,51.93
2023-03-20T05:13:05.636Z,60.47
2023-03-20T05:16:01.772Z,56.93
2023-03-20T05:18:38.184Z,50.60
2023-03-20T05:21:15.785Z,50.20
2023-03-20T05:24:10.582Z,57.83
2023-03-20T05:27:01.223Z,57.27
2023-03-20T05:29:46.452Z,56.67
2023-03-20T05:32:16.040Z,50.87
2023-03-20T05:35:07.264Z,51.93
2023-03-20T05:37:50.981Z,66.70
2023-03-20T05:40:39.414Z,54.73
2023-03-20T05:43:34.150Z,59.57
2023-03-20T05:46:19.027Z,67.00
2023-03-20T05:49:11.901Z,62.97
2023-03-20T05:52:13.985Z,56.23
2023-03-20T05:54:57.392Z,49.20
2023-03-20T05:57:39.442Z,49.47
2023-03-20T06:00:24.943Z,55.57
2023-03-20T06:03:12.451Z,53.33
2023-03-20T06:05:56.430Z,44.53
2023-03-20T06:08:23.434Z,49.40
2023-03-20T06:10:50.806Z,49.07
2023-03-20T06:13:17.819Z,49.47
2023-03-20T06:15:44.956Z,47.33
2023-03-20T06:18:16.329Z,50.03
2023-03-20T06:20:43.313Z,51.73
2023-03-20T06:23:10.188Z,44.03
2023-03-20T06:25:37.123Z,48.47
2023-03-20T06:28:04.610Z,47.73
2023-03-20T06:30:31.608Z,56.53
2023-03-20T06:32:58.557Z,56.33
2023-03-20T06:35:34.156Z,53.87
2023-03-20T06:38:01.770Z,56.40
2023-03-20T06:40:28.717Z,57.90
2023-03-20T06:42:56.334Z,53.37
2023-03-20T06:45:28.379Z,62.90
2023-03-20T06:48:00.473Z,52.40
2023-03-20T06:50:28.111Z,48.80
2023-03-20T06:52:58.038Z,42.67
2023-03-20T06:55:42.538Z,47.93
2023-03-20T06:58:10.544Z,53.53
2023-03-20T07:00:39.908Z,51.30
2023-03-20T07:03:08.549Z,50.97
2023-03-20T07:05:36.159Z,50.67
2023-03-20T07:08:07.872Z,53.27
2023-03-20T07:10:35.508Z,49.83
2023-03-20T07:13:02.433Z,55.17
2023-03-20T07:15:30.277Z,46.57
2023-03-20T07:17:57.466Z,50.43
2023-03-20T07:20:27.035Z,52.50
2023-03-20T07:22:53.990Z,56.07
2023-03-20T07:25:39.481Z,53.30
2023-03-20T07:28:09.174Z,60.37
2023-03-20T07:30:39.030Z,55.07
2023-03-20T07:33:06.739Z,56.77
2023-03-20T07:35:34.795Z,56.53
2023-03-20T07:38:01.990Z,60.43
2023-03-20T07:40:29.330Z,66.80
2023-03-20T07:43:01.414Z,62.50
2023-03-20T07:45:51.892Z,65.23
2023-03-20T07:48:19.792Z,66.97
2023-03-20T07:50:46.640Z,68.83
2023-03-20T07:53:13.652Z,72.73
2023-03-20T07:55:40.502Z,63.47
2023-03-20T07:58:10.625Z,76.10
2023-03-20T08:00:37.890Z,76.30
2023-03-20T08:03:04.892Z,70.83
2023-03-20T08:05:32.309Z,73.17
2023-03-20T08:07:59.385Z,72.17
2023-03-20T08:10:26.337Z,77.60
2023-03-20T08:12:53.283Z,74.77
2023-03-20T08:15:20.149Z,69.63
2023-03-20T08:17:47.126Z,71.13
2023-03-20T08:20:15.005Z,73.60
2023-03-20T08:22:42.927Z,71.50
2023-03-20T08:25:09.905Z,68.07
2023-03-20T08:27:37.267Z,65.03
2023-03-20T08:30:04.392Z,65.70
2023-03-20T08:32:31.278Z,67.97
2023-03-20T08:34:58.111Z,75.20
2023-03-20T08:37:24.970Z,67.60
2023-03-20T08:39:51.884Z,68.43
2023-03-20T08:54:56.210Z,66.07
2023-03-20T08:57:22.405Z,67.17
2023-03-20T08:59:48.491Z,63.50
2023-03-20T09:02:15.001Z,60.43
2023-03-20T09:04:41.506Z,59.37
2023-03-20T09:07:07.892Z,61.87
2023-03-20T09:09:33.986Z,67.67
2023-03-20T09:14:38.926Z,64.33
2023-03-20T09:17:05.499Z,65.37
2023-03-20T09:19:31.950Z,61.20
2023-03-20T09:21:58.810Z,64.87
2023-03-20T09:24:25.745Z,58.07
2023-03-20T09:26:52.700Z,61.07
2023-03-20T09:29:19.567Z,57.73
2023-03-20T09:31:46.564Z,58.30
2023-03-20T09:34:13.464Z,58.67
2023-03-20T09:36:40.223Z,51.13
2023-03-20T09:39:07.518Z,53.73
2023-03-20T09:41:52.849Z,53.70
2023-03-20T09:44:29.030Z,57.00
2023-03-20T09:47:20.515Z,62.33
2023-03-20T09:50:03.074Z,60.03
2023-03-20T09:52:35.352Z,57.37
2023-03-20T09:55:13.362Z,50.63
2023-03-20T09:57:41.937Z,54.17
2023-03-20T10:00:18.918Z,48.83
2023-03-20T10:02:46.127Z,45.57
2023-03-20T10:05:19.883Z,47.83
2023-03-20T10:07:46.937Z,47.00
2023-03-20T10:10:14.522Z,48.00
2023-03-20T10:12:58.257Z,54.00
2023-03-20T10:15:34.223Z,46.63
2023-03-20T10:18:07.394Z,53.70
2023-03-20T10:20:50.678Z,43.40
2023-03-20T10:23:34.950Z,46.27
2023-03-20T10:26:12.965Z,44.03
2023-03-20T10:28:47.174Z,44.17
2023-03-20T10:31:14.091Z,45.13
2023-03-20T10:33:56.142Z,46.70
2023-03-20T10:36:32.296Z,47.40
2023-03-20T10:39:00.112Z,48.03
2023-03-20T10:41:32.631Z,42.63
2023-03-20T10:44:00.853Z,42.47
2023-03-20T10:46:30.531Z,41.13
2023-03-20T10:49:00.568Z,38.80
2023-03-20T10:51:37.256Z,42.00
2023-03-20T10:54:04.871Z,39.73
2023-03-20T10:56:31.607Z,40.87
2023-03-20T10:59:03.878Z,37.10
2023-03-20T11:01:30.744Z,38.03
2023-03-20T11:03:57.680Z,40.13
2023-03-20T11:06:28.027Z,43.20
2023-03-20T11:08:54.838Z,40.03
2023-03-20T11:11:22.702Z,37.73
2023-03-20T11:13:49.609Z,39.33
2023-03-20T11:16:21.502Z,37.83
2023-03-20T11:18:49.642Z,36.57
2023-03-20T11:21:19.446Z,40.10
2023-03-20T11:23:46.430Z,39.93
2023-03-20T11:26:17.478Z,40.00
2023-03-20T11:28:48.681Z,42.20
2023-03-20T11:31:20.596Z,39.03
2023-03-20T11:33:52.121Z,36.60
2023-03-20T11:36:28.068Z,43.00
2023-03-20T11:38:59.475Z,39.50
2023-03-20T11:41:27.841Z,35.53
2023-03-20T11:43:54.941Z,32.80
2023-03-20T11:46:23.495Z,33.97
2023-03-20T11:49:09.366Z,35.30
2023-03-20T11:51:36.892Z,31.57
2023-03-20T11:54:07.971Z,32.40
2023-03-20T11:56:35.715Z,33.80
2023-03-20T11:59:18.439Z,30.27
2023-03-20T12:01:49.005Z,31.00
2023-03-20T12:04:18.093Z,30.17
2023-03-20T12:06:51.564Z,29.87
2023-03-20T12:09:21.603Z,27.80
2023-03-20T12:12:07.202Z,30.70
2023-03-20T12:14:52.886Z,28.63
2023-03-20T12:17:19.662Z,31.00
2023-03-20T12:19:47.552Z,30.53
2023-03-20T12:22:27.358Z,31.47
2023-03-20T12:24:54.188Z,33.97
2023-03-20T12:27:34.756Z,27.20
2023-03-20T12:30:25.074Z,29.60
2023-03-20T12:33:00.912Z,30.37
2023-03-20T12:35:29.325Z,25.90
2023-03-20T12:37:56.111Z,26.40
2023-03-20T12:40:28.096Z,28.00
2023-03-20T12:43:00.099Z,28.93
2023-03-20T12:45:44.716Z,27.30
2023-03-20T12:48:30.493Z,27.03
2023-03-20T12:51:03.594Z,26.70
2023-03-20T12:53:42.677Z,25.47
2023-03-20T12:56:12.463Z,25.10
2023-03-20T12:58:52.744Z,27.30
2023-03-20T13:01:29.322Z,26.47
2023-03-20T13:04:05.443Z,28.83
2023-03-20T13:06:39.665Z,30.47
2023-03-20T13:09:16.189Z,27.77
2023-03-20T13:12:02.277Z,26.03
2023-03-20T13:14:43.574Z,31.67
2023-03-20T13:17:33.980Z,32.93
2023-03-20T13:20:01.077Z,33.37
2023-03-20T13:22:44.280Z,35.97
2023-03-20T13:25:13.990Z,34.40
2023-03-20T13:27:52.976Z,32.77
2023-03-20T13:30:41.600Z,29.97
2023-03-20T13:33:38.200Z,31.30
2023-03-20T13:36:07.936Z,34.43
2023-03-20T13:38:36.881Z,29.60
2023-03-20T13:41:05.961Z,28.33
2023-03-20T13:43:33.070Z,32.53
2023-03-20T13:46:04.874Z,36.60
2023-03-20T13:48:36.511Z,35.90
2023-03-20T13:51:22.202Z,37.53
2023-03-20T13:54:00.846Z,33.27
2023-03-20T13:56:28.100Z,37.20
2023-03-20T13:58:59.193Z,32.33
2023-03-20T14:01:35.833Z,35.20
2023-03-20T14:04:03.232Z,32.77
2023-03-20T14:06:32.832Z,31.43
2023-03-20T14:09:00.079Z,29.23
2023-03-20T14:11:32.825Z,35.30
2023-03-20T14:14:05.900Z,34.77
2023-03-20T14:16:32.839Z,32.03
2023-03-20T14:19:07.357Z,38.67
2023-03-20T14:21:35.141Z,40.57
2023-03-20T14:24:06.676Z,35.37
2023-03-20T14:26:38.452Z,32.33
2023-03-20T14:29:11.362Z,37.33
2023-03-20T14:31:39.186Z,38.47
2023-03-20T14:34:12.157Z,36.97
2023-03-20T14:36:46.752Z,35.10
2023-03-20T14:39:13.644Z,34.27
2023-03-20T14:41:57.517Z,44.03
2023-03-20T14:44:24.413Z,35.47
2023-03-20T14:46:57.203Z,33.30
2023-03-20T14:49:33.130Z,37.50
2023-03-20T14:52:22.970Z,33.60
2023-03-20T14:54:54.167Z,40.10
2023-03-20T14:57:45.481Z,37.77
2023-03-20T15:00:23.495Z,29.33
2023-03-20T15:02:54.597Z,31.60
2023-03-20T15:05:32.456Z,34.90
2023-03-20T15:08:04.560Z,31.27
2023-03-20T15:10:32.620Z,30.83
2023-03-20T15:12:59.651Z,31.17
2023-03-20T15:15:28.156Z,30.43
2023-03-20T15:17:55.027Z,28.30
2023-03-20T15:20:23.564Z,31.53
2023-03-20T15:22:51.754Z,31.20
2023-03-20T15:25:19.690Z,31.63
2023-03-20T15:27:47.150Z,34.83
2023-03-20T15:30:15.688Z,28.40
2023-03-20T15:32:45.839Z,31.33
2023-03-20T15:35:17.794Z,33.67
2023-03-20T15:37:46.389Z,33.50
2023-03-20T15:40:49.329Z,34.80
2023-03-20T15:43:20.252Z,31.37
2023-03-20T15:45:47.201Z,28.73
2023-03-20T15:48:19.075Z,26.70
2023-03-20T15:50:50.543Z,31.83
2023-03-20T15:53:19.266Z,34.30
2023-03-20T15:56:14.867Z,31.77
2023-03-20T15:58:45.035Z,28.23
2023-03-20T16:01:16.168Z,41.37
2023-03-20T16:03:43.131Z,37.63
2023-03-20T16:06:11.362Z,38.53
2023-03-20T16:08:39.359Z,29.77
2023-03-20T16:11:07.964Z,35.47
2023-03-20T16:13:39.200Z,38.30
2023-03-20T16:16:07.912Z,36.00
2023-03-20T16:18:36.954Z,33.00
2023-03-20T16:21:05.881Z,41.43
2023-03-20T16:23:37.978Z,35.77
2023-03-20T16:26:06.179Z,56.23
2023-03-20T16:28:35.987Z,43.80
2023-03-20T16:31:10.908Z,28.03
2023-03-20T16:33:38.916Z,27.50
2023-03-20T16:36:06.332Z,23.53
2023-03-20T16:38:34.738Z,23.97
2023-03-20T16:41:22.275Z,30.43
2023-03-20T16:43:50.281Z,24.70
2023-03-20T16:46:18.593Z,21.50
2023-03-20T16:48:45.575Z,20.87
2023-03-20T16:51:18.531Z,20.90
2023-03-20T16:53:46.607Z,15.97
2023-03-20T16:56:17.660Z,21.13
2023-03-20T16:58:45.926Z,22.67
2023-03-20T17:01:18.338Z,25.63
2023-03-20T17:03:50.296Z,28.97
2023-03-20T17:06:21.655Z,20.23
2023-03-20T17:08:48.507Z,18.83
2023-03-20T17:11:17.437Z,21.27
2023-03-20T17:13:44.240Z,21.37
2023-03-20T17:16:14.928Z,17.67
2023-03-20T17:31:15.387Z,12.03
2023-03-20T17:33:42.568Z,15.13
2023-03-20T17:36:21.201Z,12.17
2023-03-20T17:38:48.153Z,22.77
2023-03-20T17:41:19.907Z,18.33
2023-03-20T17:43:47.567Z,16.37
2023-03-20T17:46:21.877Z,21.90
2023-03-20T17:48:49.258Z,22.03
2023-03-20T17:51:16.460Z,24.13
2023-03-20T17:53:43.815Z,29.63
2023-03-20T17:56:11.792Z,25.93
2023-03-20T17:58:39.614Z,19.53
2023-03-20T18:01:07.262Z,21.10
2023-03-20T18:03:34.715Z,20.87
2023-03-20T18:06:01.722Z,16.87
2023-03-20T18:08:28.644Z,17.80
2023-03-20T18:10:55.698Z,21.60
2023-03-20T18:13:23.916Z,23.80
2023-03-20T18:15:52.152Z,22.33
2023-03-20T18:18:19.517Z,30.73
2023-03-20T18:20:47.630Z,25.63
2023-03-20T18:23:14.951Z,23.90
2023-03-20T18:25:42.112Z,26.27
2023-03-20T18:28:14.697Z,27.83
2023-03-20T18:30:41.960Z,26.90
2023-03-20T18:33:08.856Z,28.27
2023-03-20T18:35:36.383Z,23.10
2023-03-20T18:38:03.830Z,22.07
2023-03-20T18:40:32.929Z,21.13
2023-03-20T18:42:59.799Z,26.13
2023-03-20T18:45:27.530Z,25.27
2023-03-20T18:47:54.988Z,22.07
2023-03-20T18:50:26.309Z,38.37
2023-03-20T18:52:54.221Z,30.47
2023-03-20T18:55:23.157Z,32.97
2023-03-20T18:57:50.331Z,36.67
2023-03-20T19:00:21.468Z,32.40
2023-03-20T19:02:48.872Z,33.87
2023-03-20T19:05:15.760Z,28.53
2023-03-20T19:07:42.847Z,38.93
2023-03-20T19:10:22.554Z,22.37
2023-03-20T19:12:49.598Z,31.57
2023-03-20T19:15:16.596Z,25.20
2023-03-20T19:17:43.403Z,19.30
2023-03-20T19:20:24.000Z,18.80
2023-03-20T19:22:51.020Z,19.10
2023-03-20T19:25:17.779Z,18.90
2023-03-20T19:27:46.274Z,18.40
2023-03-20T19:30:42.466Z,18.97
2023-03-20T19:33:10.231Z,16.03
2023-03-20T19:36:01.942Z,15.77
2023-03-20T19:38:24.271Z,15.23
2023-03-20T19:40:54.233Z,26.93
2023-03-20T19:43:24.415Z,22.67
2023-03-20T19:45:57.259Z,39.50
2023-03-20T19:48:27.043Z,34.30
2023-03-20T19:50:55.525Z,29.00
2023-03-20T19:53:25.121Z,27.03
2023-03-20T19:55:53.316Z,33.77
2023-03-20T19:58:20.517Z,35.47
2023-03-20T20:00:59.218Z,42.07
2023-03-20T20:03:26.569Z,40.47
2023-03-20T20:05:54.379Z,40.83
2023-03-20T20:08:41.413Z,41.50
2023-03-20T20:11:09.978Z,39.77
2023-03-20T20:13:47.009Z,37.13
2023-03-20T20:16:23.719Z,42.47
2023-03-20T20:18:50.608Z,42.20
2023-03-20T20:22:10.072Z,44.10
2023-03-20T20:24:04.541Z,44.27
2023-03-20T20:26:36.080Z,51.33
2023-03-20T20:29:05.606Z,43.37
2023-03-20T20:31:32.550Z,43.70
2023-03-20T20:34:38.640Z,43.53
2023-03-20T20:39:33.166Z,45.20
2023-03-20T20:42:00.015Z,45.37
2023-03-20T20:44:26.888Z,43.97
2023-03-20T20:46:53.710Z,44.50
2023-03-20T20:49:20.801Z,38.47
2023-03-20T20:51:48.389Z,37.57
2023-03-20T20:54:15.850Z,34.23
2023-03-20T20:56:42.775Z,38.03
2023-03-20T20:59:09.702Z,42.33
2023-03-20T21:01:36.656Z,40.43
2023-03-20T21:04:03.674Z,43.70
2023-03-20T21:07:03.552Z,44.53
2023-03-20T21:09:17.605Z,38.63
2023-03-20T21:11:44.668Z,37.90
2023-03-20T21:14:11.524Z,37.40
2023-03-20T21:16:38.498Z,39.50
2023-03-20T21:19:05.410Z,39.20
2023-03-20T21:21:35.620Z,36.87
2023-03-20T21:24:03.457Z,37.97
2023-03-20T21:26:31.600Z,34.67
2023-03-20T21:28:58.701Z,36.63
2023-03-20T21:31:29.543Z,37.60
2023-03-20T21:33:59.280Z,32.07
2023-03-20T21:36:27.906Z,32.37
2023-03-20T21:39:08.322Z,35.63
2023-03-20T21:41:38.042Z,34.20
2023-03-20T21:44:05.912Z,37.97
2023-03-20T21:52:54.821Z,38.33
2023-03-20T22:03:44.109Z,41.00
2023-03-20T22:12:28.307Z,42.93
2023-03-20T22:15:18.330Z,41.67
2023-03-20T22:20:53.433Z,39.60
2023-03-20T22:26:47.316Z,40.97
2023-03-20T22:29:14.931Z,38.30
2023-03-20T22:34:46.502Z,40.50
2023-03-20T22:42:52.779Z,43.50
2023-03-20T22:45:13.948Z,45.07
2023-03-20T22:47:41.376Z,43.67
2023-03-20T22:50:09.103Z,48.10
2023-03-20T22:52:48.250Z,42.73
2023-03-20T22:55:17.518Z,42.57
2023-03-20T22:57:59.527Z,44.13
2023-03-20T23:00:32.502Z,47.50
2023-03-20T23:03:12.910Z,39.90
2023-03-20T23:05:42.429Z,40.37
2023-03-20T23:08:11.595Z,41.23
2023-03-20T23:10:42.368Z,38.50
2023-03-20T23:13:10.112Z,36.57
2023-03-20T23:15:36.927Z,37.17
2023-03-20T23:18:04.821Z,38.37
2023-03-20T23:20:33.042Z,37.67
2023-03-20T23:23:00.531Z,35.70
2023-03-20T23:25:38.773Z,33.60
2023-03-20T23:28:10.188Z,35.03
2023-03-20T23:30:46.240Z,32.07
2023-03-20T23:33:17.672Z,33.77
2023-03-20T23:35:45.854Z,29.97
2023-03-20T23:38:13.612Z,30.17
2023-03-20T23:40:40.753Z,31.33
2023-03-20T23:43:07.630Z,27.67
2023-03-20T23:45:35.264Z,29.37
2023-03-20T23:48:02.512Z,25.67
2023-03-20T23:50:39.803Z,27.80
2023-03-20T23:53:20.392Z,29.20
2023-03-20T23:55:48.847Z,29.23
2023-03-20T23:58:15.843Z,26.50
